createdAt,value
2017-10-24T00:01:24.040Z,11.61
2017-10-24T00:03:58.759Z,11.60
2017-10-24T00:06:34.524Z,11.61
2017-10-24T00:09:09.172Z,11.61
2017-10-24T00:11:43.947Z,11.61
2017-10-24T00:14:18.488Z,11.60
2017-10-24T00:16:53.139Z,11.58
2017-10-24T00:19:27.495Z,11.57
2017-10-24T00:22:02.499Z,11.58
2017-10-24T00:24:37.395Z,11.59
2017-10-24T00:27:12.252Z,11.55
2017-10-24T00:29:47.155Z,11.54
2017-10-24T00:32:22.040Z,11.50
2017-10-24T00:34:57.543Z,11.41
2017-10-24T00:37:33.117Z,11.32
2017-10-24T00:40:07.903Z,11.36
2017-10-24T00:42:42.635Z,11.28
2017-10-24T00:45:17.484Z,11.20
2017-10-24T00:47:52.251Z,11.29
2017-10-24T00:50:26.609Z,11.34
2017-10-24T00:53:01.579Z,11.27
2017-10-24T00:55:35.872Z,11.30
2017-10-24T00:58:10.592Z,11.32
2017-10-24T01:00:45.356Z,11.34
2017-10-24T01:03:20.397Z,11.32
2017-10-24T01:05:54.995Z,11.32
2017-10-24T01:08:29.489Z,11.29
2017-10-24T01:11:04.881Z,11.26
2017-10-24T01:13:39.388Z,11.23
2017-10-24T01:16:13.796Z,11.16
2017-10-24T01:18:48.601Z,11.09
2017-10-24T01:21:23.584Z,11.03
2017-10-24T01:23:58.090Z,10.97
2017-10-24T01:26:32.576Z,10.99
2017-10-24T01:29:07.546Z,11.01
2017-10-24T01:31:42.022Z,11.03
2017-10-24T01:34:16.604Z,11.04
2017-10-24T01:36:51.800Z,11.03
2017-10-24T01:39:26.227Z,11.06
2017-10-24T01:42:00.908Z,11.04
2017-10-24T01:44:35.515Z,11.10
2017-10-24T01:47:10.393Z,11.12
2017-10-24T01:49:44.932Z,11.13
2017-10-24T01:52:18.788Z,11.14
2017-10-24T01:54:53.903Z,11.09
2017-10-24T01:57:29.116Z,11.09
2017-10-24T02:00:03.929Z,11.09
2017-10-24T02:02:38.732Z,11.09
2017-10-24T02:05:13.401Z,11.14
2017-10-24T02:07:47.934Z,11.19
2017-10-24T02:10:22.725Z,11.22
2017-10-24T02:12:57.279Z,11.19
2017-10-24T02:15:32.585Z,11.16
2017-10-24T02:18:06.860Z,11.13
2017-10-24T02:20:41.816Z,11.14
2017-10-24T02:23:17.068Z,11.14
2017-10-24T02:25:51.679Z,11.12
2017-10-24T02:28:26.521Z,11.10
2017-10-24T02:31:01.344Z,11.11
2017-10-24T02:33:36.184Z,11.13
2017-10-24T02:36:11.342Z,11.19
2017-10-24T02:38:46.009Z,11.24
2017-10-24T02:41:21.247Z,11.27
2017-10-24T02:43:55.768Z,11.25
2017-10-24T02:46:30.866Z,11.23
2017-10-24T02:49:05.632Z,11.18
2017-10-24T02:51:39.981Z,11.15
2017-10-24T02:54:14.973Z,11.14
2017-10-24T02:56:51.311Z,11.14
2017-10-24T02:59:26.464Z,11.20
2017-10-24T03:02:01.088Z,11.24
2017-10-24T03:04:35.774Z,11.29
2017-10-24T03:07:10.472Z,11.32
2017-10-24T03:09:45.256Z,11.34
2017-10-24T03:12:19.752Z,11.34
2017-10-24T03:14:54.808Z,11.34
2017-10-24T03:17:29.657Z,11.34
2017-10-24T03:20:04.421Z,11.38
2017-10-24T03:22:38.879Z,11.44
2017-10-24T03:25:13.872Z,11.52
2017-10-24T03:27:48.401Z,11.56
2017-10-24T03:30:23.237Z,11.56
2017-10-24T03:32:58.225Z,11.59
2017-10-24T03:35:33.588Z,11.69
2017-10-24T03:38:08.465Z,11.68
2017-10-24T03:40:43.140Z,11.71
2017-10-24T03:43:18.872Z,11.72
2017-10-24T03:45:53.568Z,11.76
2017-10-24T03:48:28.785Z,11.79
2017-10-24T03:51:03.826Z,11.85
2017-10-24T03:53:38.486Z,11.90
2017-10-24T03:56:13.892Z,11.96
2017-10-24T03:58:48.484Z,11.99
2017-10-24T04:01:23.245Z,12.05
2017-10-24T04:03:57.576Z,12.08
2017-10-24T04:06:32.393Z,12.09
2017-10-24T04:09:07.328Z,12.11
2017-10-24T04:11:41.855Z,12.09
2017-10-24T04:14:16.376Z,12.07
2017-10-24T04:16:50.936Z,12.06
2017-10-24T04:19:25.664Z,12.10
2017-10-24T04:22:00.132Z,12.08
2017-10-24T04:24:34.757Z,12.03
2017-10-24T04:27:09.232Z,11.79
2017-10-24T04:29:44.248Z,11.95
2017-10-24T04:32:18.691Z,12.01
2017-10-24T04:34:53.273Z,12.07
2017-10-24T04:37:27.900Z,12.11
2017-10-24T04:40:02.814Z,12.10
2017-10-24T04:42:38.792Z,12.10
2017-10-24T04:45:13.292Z,12.12
2017-10-24T04:47:48.029Z,12.13
2017-10-24T04:50:22.730Z,12.11
2017-10-24T04:52:57.633Z,12.10
2017-10-24T04:55:32.485Z,12.08
2017-10-24T04:58:07.027Z,12.08
2017-10-24T05:00:41.325Z,12.09
2017-10-24T05:03:16.252Z,12.07
2017-10-24T05:05:51.025Z,12.07
2017-10-24T05:08:25.736Z,12.04
2017-10-24T05:11:00.385Z,12.00
2017-10-24T05:13:35.020Z,12.00
2017-10-24T05:16:09.765Z,11.97
2017-10-24T05:18:44.494Z,11.98
2017-10-24T05:21:19.144Z,12.00
2017-10-24T05:23:54.168Z,12.02
2017-10-24T05:26:28.580Z,11.96
2017-10-24T05:29:03.261Z,11.97
2017-10-24T05:31:37.936Z,11.97
2017-10-24T05:34:12.681Z,11.95
2017-10-24T05:36:47.288Z,12.00
2017-10-24T05:39:21.661Z,12.02
2017-10-24T05:41:57.828Z,12.03
2017-10-24T05:44:32.452Z,12.06
2017-10-24T05:47:07.337Z,12.08
2017-10-24T05:49:41.932Z,12.07
2017-10-24T05:52:16.861Z,12.09
2017-10-24T05:54:51.407Z,12.13
2017-10-24T05:57:26.510Z,12.13
2017-10-24T06:00:01.049Z,12.18
2017-10-24T06:02:35.528Z,12.22
2017-10-24T06:05:10.533Z,12.21
2017-10-24T06:07:47.063Z,12.24
2017-10-24T06:10:21.684Z,12.34
2017-10-24T06:12:56.488Z,12.36
2017-10-24T06:15:31.261Z,12.35
2017-10-24T06:18:06.044Z,12.40
2017-10-24T06:20:40.581Z,12.37
2017-10-24T06:23:15.328Z,12.38
2017-10-24T06:25:51.181Z,12.40
2017-10-24T06:28:26.132Z,12.46
2017-10-24T06:31:01.368Z,12.47
2017-10-24T06:33:36.440Z,12.50
2017-10-24T06:36:11.148Z,12.59
2017-10-24T06:38:45.580Z,12.64
2017-10-24T06:41:20.258Z,12.66
2017-10-24T06:43:54.744Z,12.66
2017-10-24T06:46:29.444Z,12.58
2017-10-24T06:49:04.721Z,12.62
2017-10-24T06:51:39.244Z,12.60
2017-10-24T06:54:13.960Z,12.52
2017-10-24T06:56:48.708Z,12.62
2017-10-24T06:59:23.385Z,12.67
2017-10-24T07:01:58.048Z,12.65
2017-10-24T07:04:32.680Z,12.66
2017-10-24T07:07:07.789Z,12.72
2017-10-24T07:09:42.505Z,12.76
2017-10-24T07:12:17.141Z,12.85
2017-10-24T07:14:51.803Z,12.83
2017-10-24T07:17:26.703Z,12.81
2017-10-24T07:20:01.352Z,12.78
2017-10-24T07:22:36.268Z,12.83
2017-10-24T07:25:10.976Z,12.89
2017-10-24T07:27:45.745Z,12.87
2017-10-24T07:30:20.431Z,12.89
2017-10-24T07:32:55.212Z,12.89
2017-10-24T07:35:29.866Z,12.95
2017-10-24T07:38:04.655Z,12.92
2017-10-24T07:40:39.564Z,12.92
2017-10-24T07:43:13.984Z,12.90
2017-10-24T07:45:48.582Z,12.92
2017-10-24T07:48:23.552Z,12.95
2017-10-24T07:50:58.215Z,13.01
2017-10-24T07:53:33.025Z,13.11
2017-10-24T07:56:07.740Z,13.09
2017-10-24T07:58:42.604Z,13.19
2017-10-24T08:01:17.150Z,13.26
2017-10-24T08:03:51.888Z,13.24
2017-10-24T08:06:27.301Z,13.34
2017-10-24T08:09:02.028Z,13.38
2017-10-24T08:11:36.855Z,13.36
2017-10-24T08:14:13.380Z,13.30
2017-10-24T08:16:48.945Z,13.30
2017-10-24T08:19:23.782Z,13.31
2017-10-24T08:21:58.415Z,13.37
2017-10-24T08:24:33.143Z,13.43
2017-10-24T08:27:07.884Z,13.46
2017-10-24T08:29:43.536Z,13.42
2017-10-24T08:32:18.208Z,13.40
2017-10-24T08:34:52.960Z,13.41
2017-10-24T08:37:27.769Z,13.43
2017-10-24T08:40:02.620Z,13.54
2017-10-24T08:42:38.320Z,13.54
2017-10-24T08:45:12.752Z,13.52
2017-10-24T08:47:47.745Z,13.45
2017-10-24T08:50:22.365Z,13.51
2017-10-24T08:52:57.561Z,13.45
2017-10-24T08:55:32.190Z,13.49
2017-10-24T08:58:07.168Z,13.60
2017-10-24T09:00:41.423Z,13.59
2017-10-24T09:03:16.166Z,13.59
2017-10-24T09:08:53.827Z,13.71
2017-10-24T09:11:39.908Z,13.77
2017-10-24T09:14:17.923Z,13.88
2017-10-24T09:16:57.143Z,13.91
2017-10-24T09:20:02.268Z,13.95
2017-10-24T09:22:37.524Z,13.93
2017-10-24T09:25:12.412Z,13.98
2017-10-24T09:27:47.009Z,14.03
2017-10-24T09:30:21.888Z,14.03
2017-10-24T09:32:56.592Z,14.02
2017-10-24T09:35:31.137Z,14.07
2017-10-24T09:38:06.257Z,14.11
2017-10-24T09:40:40.681Z,14.09
2017-10-24T09:43:15.369Z,14.14
2017-10-24T09:45:49.515Z,14.08
2017-10-24T09:48:24.720Z,14.02
2017-10-24T09:51:07.044Z,14.01
2017-10-24T09:53:41.591Z,14.04
2017-10-24T09:56:33.160Z,14.07
2017-10-24T09:59:22.389Z,14.07
2017-10-24T10:01:57.669Z,14.06
2017-10-24T10:04:32.273Z,14.05
2017-10-24T10:07:13.856Z,14.07
2017-10-24T10:09:49.085Z,14.15
2017-10-24T10:12:23.504Z,14.15
2017-10-24T10:14:58.559Z,14.22
2017-10-24T10:17:33.612Z,14.22
2017-10-24T10:20:08.126Z,14.23
2017-10-24T10:22:43.045Z,14.23
2017-10-24T10:25:17.788Z,14.26
2017-10-24T10:27:52.575Z,14.29
2017-10-24T10:30:27.135Z,14.34
2017-10-24T10:33:02.312Z,14.34
2017-10-24T10:35:37.164Z,14.39
2017-10-24T10:38:11.464Z,14.51
2017-10-24T10:40:46.500Z,14.52
2017-10-24T10:43:20.908Z,14.48
2017-10-24T10:45:55.368Z,14.56
2017-10-24T10:48:30.657Z,14.54
2017-10-24T10:51:05.517Z,14.60
2017-10-24T10:53:40.362Z,14.58
2017-10-24T10:56:15.106Z,14.57
2017-10-24T10:58:49.573Z,14.62
2017-10-24T11:01:24.296Z,14.68
2017-10-24T11:03:59.353Z,14.72
2017-10-24T11:06:33.748Z,14.72
2017-10-24T11:09:08.692Z,14.70
2017-10-24T11:11:43.945Z,14.71
2017-10-24T11:14:18.620Z,14.80
2017-10-24T11:16:53.441Z,14.87
2017-10-24T11:19:28.364Z,14.90
2017-10-24T11:22:03.232Z,14.94
2017-10-24T11:24:38.100Z,14.95
2017-10-24T11:27:13.032Z,14.88
2017-10-24T11:29:47.808Z,14.82
2017-10-24T11:32:22.544Z,14.95
2017-10-24T11:34:57.411Z,15.02
2017-10-24T11:37:32.196Z,15.12
2017-10-24T11:40:06.888Z,15.14
2017-10-24T11:42:41.651Z,15.19
2017-10-24T11:45:16.601Z,15.24
2017-10-24T11:47:51.060Z,15.29
2017-10-24T11:50:25.965Z,15.22
2017-10-24T11:53:01.515Z,15.24
2017-10-24T11:55:36.178Z,15.28
2017-10-24T11:58:11.036Z,15.25
2017-10-24T12:00:45.595Z,15.22
2017-10-24T12:03:19.960Z,15.23
2017-10-24T12:05:55.008Z,15.24
2017-10-24T12:08:29.613Z,15.19
2017-10-24T12:11:04.451Z,15.19
2017-10-24T12:13:38.841Z,15.30
2017-10-24T12:16:13.672Z,15.38
2017-10-24T12:18:48.440Z,15.35
2017-10-24T12:21:23.307Z,15.37
2017-10-24T12:23:58.010Z,15.36
2017-10-24T12:26:32.861Z,15.40
2017-10-24T12:29:07.964Z,15.32
2017-10-24T12:31:42.941Z,15.37
2017-10-24T12:34:17.852Z,15.37
2017-10-24T12:36:52.808Z,15.40
2017-10-24T12:39:27.440Z,15.36
2017-10-24T12:42:02.072Z,15.50
2017-10-24T12:44:38.143Z,15.55
2017-10-24T12:47:15.953Z,15.46
2017-10-24T12:49:54.096Z,15.45
2017-10-24T12:52:29.132Z,15.48
2017-10-24T12:55:04.208Z,15.56
2017-10-24T12:57:39.598Z,15.61
2017-10-24T13:00:16.278Z,15.60
2017-10-24T13:02:50.844Z,15.66
2017-10-24T13:05:25.497Z,15.64
2017-10-24T13:08:00.275Z,15.65
2017-10-24T13:10:34.936Z,15.62
2017-10-24T13:13:09.633Z,15.68
2017-10-24T13:15:44.117Z,15.62
2017-10-24T13:18:18.987Z,15.65
2017-10-24T13:20:53.801Z,15.63
2017-10-24T13:23:28.500Z,15.68
2017-10-24T13:26:03.954Z,15.71
2017-10-24T13:28:39.028Z,15.73
2017-10-24T13:31:13.869Z,15.76
2017-10-24T13:33:48.652Z,15.80
2017-10-24T13:36:23.511Z,15.81
2017-10-24T13:38:58.372Z,15.86
2017-10-24T13:41:33.148Z,15.82
2017-10-24T13:44:08.159Z,15.83
2017-10-24T13:46:43.773Z,15.81
2017-10-24T13:49:18.536Z,15.88
2017-10-24T13:51:53.313Z,15.92
2017-10-24T13:54:28.045Z,15.92
2017-10-24T13:57:02.868Z,15.94
2017-10-24T13:59:37.605Z,16.02
2017-10-24T14:02:12.165Z,15.96
2017-10-24T14:04:52.234Z,15.93
2017-10-24T14:07:32.026Z,15.96
2017-10-24T14:10:11.845Z,16.00
2017-10-24T14:12:47.142Z,15.98
2017-10-24T14:15:21.976Z,15.94
2017-10-24T14:17:56.854Z,15.95
2017-10-24T14:20:31.501Z,15.99
2017-10-24T14:23:07.162Z,15.96
2017-10-24T14:25:42.846Z,15.91
2017-10-24T14:28:17.556Z,15.89
2017-10-24T14:30:52.342Z,15.94
2017-10-24T14:33:27.193Z,15.98
2017-10-24T14:36:01.920Z,15.87
2017-10-24T14:38:36.792Z,15.76
2017-10-24T14:41:12.460Z,15.82
2017-10-24T14:43:47.236Z,15.86
2017-10-24T14:46:22.600Z,15.90
2017-10-24T14:48:57.427Z,15.90
2017-10-24T14:51:32.172Z,15.95
2017-10-24T14:54:06.879Z,15.97
2017-10-24T14:56:41.293Z,15.99
2017-10-24T14:59:16.339Z,16.01
2017-10-24T15:01:51.093Z,15.99
2017-10-24T15:04:25.923Z,16.02
2017-10-24T15:07:00.834Z,15.98
2017-10-24T15:09:35.658Z,15.96
2017-10-24T15:12:10.260Z,15.95
2017-10-24T15:14:45.165Z,15.91
2017-10-24T15:17:19.969Z,15.92
2017-10-24T15:19:54.772Z,15.87
2017-10-24T15:22:29.541Z,15.86
2017-10-24T15:25:04.096Z,15.92
2017-10-24T15:27:39.073Z,15.93
2017-10-24T15:30:13.964Z,15.95
2017-10-24T15:32:48.690Z,15.91
2017-10-24T15:35:23.316Z,15.85
2017-10-24T15:37:58.460Z,15.88
2017-10-24T15:40:33.821Z,15.89
2017-10-24T15:43:08.672Z,15.81
2017-10-24T15:45:43.380Z,15.82
2017-10-24T15:48:18.136Z,15.89
2017-10-24T15:50:53.204Z,15.85
2017-10-24T15:53:28.230Z,15.80
2017-10-24T15:56:02.789Z,15.82
2017-10-24T15:58:37.467Z,15.80
2017-10-24T16:01:12.533Z,15.74
2017-10-24T16:03:47.663Z,15.73
2017-10-24T16:06:22.284Z,15.72
2017-10-24T16:08:57.380Z,15.70
2017-10-24T16:11:32.191Z,15.73
2017-10-24T16:14:07.285Z,15.68
2017-10-24T16:16:41.896Z,15.64
2017-10-24T16:19:16.581Z,15.63
2017-10-24T16:21:51.584Z,15.65
2017-10-24T16:24:26.440Z,15.66
2017-10-24T16:27:01.353Z,15.69
2017-10-24T16:29:35.965Z,15.72
2017-10-24T16:32:10.668Z,15.73
2017-10-24T16:34:45.516Z,15.74
2017-10-24T16:37:20.533Z,15.69
2017-10-24T16:39:55.269Z,15.65
2017-10-24T16:42:30.244Z,15.64
2017-10-24T16:45:04.729Z,15.66
2017-10-24T16:47:39.464Z,15.65
2017-10-24T16:50:14.265Z,15.64
2017-10-24T16:52:49.048Z,15.57
2017-10-24T16:55:23.848Z,15.60
2017-10-24T16:57:58.760Z,15.68
2017-10-24T17:00:33.712Z,15.62
2017-10-24T17:03:08.632Z,15.60
2017-10-24T17:05:43.476Z,15.63
2017-10-24T17:08:18.501Z,15.72
2017-10-24T17:10:53.418Z,15.75
2017-10-24T17:13:28.180Z,15.79
2017-10-24T17:16:03.143Z,15.81
2017-10-24T17:18:38.657Z,15.84
2017-10-24T17:21:13.200Z,15.85
2017-10-24T17:23:48.082Z,15.81
2017-10-24T17:26:22.716Z,15.80
2017-10-24T17:28:57.677Z,15.77
2017-10-24T17:31:32.073Z,15.75
2017-10-24T17:34:07.108Z,15.79
2017-10-24T17:36:41.880Z,15.79
2017-10-24T17:39:16.264Z,15.76
2017-10-24T17:41:51.181Z,15.81
2017-10-24T17:44:25.939Z,15.85
2017-10-24T17:47:00.824Z,15.86
2017-10-24T17:49:35.561Z,15.85
2017-10-24T17:52:10.168Z,15.85
2017-10-24T17:54:44.936Z,15.80
2017-10-24T17:57:19.709Z,15.84
2017-10-24T17:59:54.368Z,15.87
2017-10-24T18:02:29.044Z,15.92
2017-10-24T18:05:03.988Z,15.93
2017-10-24T18:07:38.449Z,15.89
2017-10-24T18:10:13.302Z,15.93
2017-10-24T18:12:48.148Z,15.95
2017-10-24T18:15:22.884Z,15.94
2017-10-24T18:17:57.636Z,15.94
2017-10-24T18:20:32.224Z,15.96
2017-10-24T18:23:06.991Z,15.96
2017-10-24T18:25:41.629Z,15.97
2017-10-24T18:28:16.529Z,15.98
2017-10-24T18:30:51.162Z,16.02
2017-10-24T18:33:26.084Z,16.01
2017-10-24T18:36:00.441Z,16.05
2017-10-24T18:38:35.583Z,16.02
2017-10-24T18:41:10.315Z,16.09
2017-10-24T18:43:44.828Z,16.12
2017-10-24T18:46:19.638Z,16.13
2017-10-24T18:48:54.190Z,16.16
2017-10-24T18:51:28.724Z,16.18
2017-10-24T18:54:03.740Z,16.18
2017-10-24T18:56:38.545Z,16.22
2017-10-24T18:59:13.133Z,16.28
2017-10-24T19:01:47.836Z,16.32
2017-10-24T19:04:22.468Z,16.33
2017-10-24T19:06:57.408Z,16.33
2017-10-24T19:09:32.400Z,16.33
2017-10-24T19:12:07.316Z,16.32
2017-10-24T19:14:42.652Z,16.35
2017-10-24T19:17:17.612Z,16.34
2017-10-24T19:19:52.849Z,16.34
2017-10-24T19:22:27.895Z,16.34
2017-10-24T19:25:02.900Z,16.43
2017-10-24T19:27:38.839Z,16.41
2017-10-24T19:30:13.781Z,16.42
2017-10-24T19:32:49.135Z,16.46
2017-10-24T19:35:23.875Z,16.50
2017-10-24T19:37:58.105Z,16.50
2017-10-24T19:40:33.024Z,16.52
2017-10-24T19:43:08.133Z,16.55
2017-10-24T19:45:42.504Z,16.57
2017-10-24T19:48:17.332Z,16.63
2017-10-24T19:50:51.931Z,16.60
2017-10-24T19:53:27.292Z,16.61
2017-10-24T19:56:02.421Z,16.64
2017-10-24T19:58:37.495Z,16.66
2017-10-24T20:01:12.192Z,16.67
2017-10-24T20:03:47.120Z,16.71
2017-10-24T20:06:21.961Z,16.70
2017-10-24T20:08:57.064Z,16.70
2017-10-24T20:11:31.932Z,16.68
2017-10-24T20:14:07.544Z,16.69
2017-10-24T20:16:42.550Z,16.68
2017-10-24T20:19:17.856Z,16.71
2017-10-24T20:21:52.881Z,16.77
2017-10-24T20:24:28.132Z,16.75
2017-10-24T20:27:02.688Z,16.69
2017-10-24T20:29:37.484Z,16.80
2017-10-24T20:32:12.626Z,16.85
2017-10-24T20:34:47.377Z,16.90
2017-10-24T20:37:22.445Z,16.91
2017-10-24T20:39:57.475Z,16.96
2017-10-24T20:42:32.104Z,16.97
2017-10-24T20:45:07.361Z,17.03
2017-10-24T20:47:42.440Z,17.04
2017-10-24T20:50:16.867Z,17.07
2017-10-24T20:52:51.836Z,17.11
2017-10-24T20:55:26.872Z,17.10
2017-10-24T20:58:01.802Z,17.16
2017-10-24T21:00:36.603Z,17.15
2017-10-24T21:03:11.729Z,17.08
2017-10-24T21:05:46.935Z,17.14
2017-10-24T21:08:21.988Z,17.19
2017-10-24T21:10:56.617Z,17.19
2017-10-24T21:13:31.691Z,17.17
2017-10-24T21:16:06.548Z,17.18
2017-10-24T21:18:41.449Z,17.11
2017-10-24T21:21:16.222Z,17.13
2017-10-24T21:23:51.280Z,17.12
2017-10-24T21:26:26.317Z,17.16
2017-10-24T21:29:01.983Z,17.20
2017-10-24T21:31:36.837Z,17.15
2017-10-24T21:34:11.989Z,17.17
2017-10-24T21:36:46.884Z,17.20
2017-10-24T21:39:21.784Z,17.22
2017-10-24T21:41:57.115Z,17.25
2017-10-24T21:44:32.084Z,17.25
2017-10-24T21:47:07.411Z,17.22
2017-10-24T21:49:42.940Z,17.31
2017-10-24T21:52:17.908Z,17.32
2017-10-24T21:54:53.159Z,17.32
2017-10-24T21:57:28.915Z,17.33
2017-10-24T22:00:03.176Z,17.33
2017-10-24T22:02:37.994Z,17.34
2017-10-24T22:05:13.392Z,17.32
2017-10-24T22:07:48.453Z,17.34
2017-10-24T22:10:23.696Z,17.32
2017-10-24T22:12:58.533Z,17.27
2017-10-24T22:15:33.531Z,17.25
2017-10-24T22:18:08.389Z,17.27
2017-10-24T22:20:43.613Z,17.22
2017-10-24T22:23:18.550Z,17.25
2017-10-24T22:25:53.112Z,17.24
2017-10-24T22:28:27.342Z,17.28
2017-10-24T22:31:02.524Z,17.25
2017-10-24T22:33:37.661Z,17.22
2017-10-24T22:36:12.504Z,17.15
2017-10-24T22:38:47.316Z,17.16
2017-10-24T22:41:22.020Z,17.15
2017-10-24T22:43:56.932Z,17.13
2017-10-24T22:46:31.953Z,17.11
2017-10-24T22:49:07.060Z,17.13
2017-10-24T22:51:42.403Z,17.14
2017-10-24T22:54:17.228Z,17.15
2017-10-24T22:56:51.853Z,17.19
2017-10-24T22:59:26.864Z,17.21
2017-10-24T23:02:01.621Z,17.18
2017-10-24T23:04:36.321Z,17.18
2017-10-24T23:07:11.900Z,17.24
2017-10-24T23:09:47.328Z,17.24
2017-10-24T23:12:22.136Z,17.23
2017-10-24T23:14:57.070Z,17.23
2017-10-24T23:17:31.928Z,17.25
2017-10-24T23:20:07.080Z,17.27
2017-10-24T23:22:41.852Z,17.30
2017-10-24T23:25:17.184Z,17.32
2017-10-24T23:27:51.897Z,17.32
2017-10-24T23:30:27.139Z,17.34
2017-10-24T23:33:02.403Z,17.35
2017-10-24T23:35:37.168Z,17.36
2017-10-24T23:38:12.321Z,17.37
2017-10-24T23:40:47.072Z,17.38
2017-10-24T23:43:22.100Z,17.35
2017-10-24T23:45:57.237Z,17.32
2017-10-24T23:48:32.581Z,17.33
2017-10-24T23:51:07.951Z,17.34
2017-10-24T23:53:42.796Z,17.32
2017-10-24T23:56:17.524Z,17.33
2017-10-24T23:58:52.248Z,17.37
